createdAt,value
2023-04-27T00:01:12.198Z,6.28
2023-04-27T00:03:39.512Z,6.70
2023-04-27T00:06:06.452Z,5.63
2023-04-27T00:08:33.666Z,6.95
2023-04-27T00:11:00.663Z,7.72
2023-04-27T00:13:27.441Z,6.45
2023-04-27T00:15:54.266Z,6.85
2023-04-27T00:18:20.981Z,6.80
2023-04-27T00:20:47.846Z,6.93
2023-04-27T00:23:14.550Z,8.70
2023-04-27T00:25:41.419Z,6.78
2023-04-27T00:28:08.131Z,8.27
2023-04-27T00:30:35.836Z,8.13
2023-04-27T00:33:02.628Z,7.13
2023-04-27T00:35:29.363Z,8.75
2023-04-27T00:37:56.082Z,10.00
2023-04-27T00:40:22.770Z,7.55
2023-04-27T00:42:49.449Z,8.75
2023-04-27T00:45:16.272Z,8.63
2023-04-27T00:47:43.393Z,7.75
2023-04-27T00:50:11.904Z,8.55
2023-04-27T00:52:39.045Z,9.52
2023-04-27T00:55:06.256Z,8.90
2023-04-27T00:57:33.431Z,7.50
2023-04-27T01:00:00.742Z,8.50
2023-04-27T01:02:27.895Z,7.70
2023-04-27T01:04:54.672Z,8.02
2023-04-27T01:07:25.834Z,7.03
2023-04-27T01:09:52.820Z,7.13
2023-04-27T01:12:19.512Z,8.00
2023-04-27T01:14:46.262Z,8.05
2023-04-27T01:17:14.037Z,8.52
2023-04-27T01:19:40.802Z,7.60
2023-04-27T01:22:07.525Z,8.32
2023-04-27T01:24:34.341Z,7.28
2023-04-27T01:27:01.733Z,7.78
2023-04-27T01:29:28.567Z,8.05
2023-04-27T01:31:55.696Z,7.55
2023-04-27T01:34:22.424Z,8.15
2023-04-27T01:36:49.100Z,7.72
2023-04-27T01:39:16.333Z,7.45
2023-04-27T01:41:43.124Z,7.82
2023-04-27T01:44:09.840Z,7.97
2023-04-27T01:46:36.582Z,7.55
2023-04-27T01:49:03.307Z,6.40
2023-04-27T01:51:30.106Z,7.68
2023-04-27T01:53:56.859Z,7.40
2023-04-27T01:56:23.577Z,8.98
2023-04-27T01:58:50.292Z,7.03
2023-04-27T02:01:17.058Z,8.15
2023-04-27T02:03:43.899Z,9.85
2023-04-27T02:06:10.699Z,7.43
2023-04-27T02:08:37.422Z,7.20
2023-04-27T02:11:04.169Z,7.45
2023-04-27T02:13:30.847Z,8.60
2023-04-27T02:15:57.641Z,7.82
2023-04-27T02:18:24.980Z,7.28
2023-04-27T02:20:51.769Z,8.50
2023-04-27T02:23:18.443Z,7.05
2023-04-27T02:25:46.847Z,8.65
2023-04-27T02:28:14.129Z,8.50
2023-04-27T02:30:41.427Z,8.38
2023-04-27T02:33:08.298Z,8.70
2023-04-27T02:35:35.077Z,9.10
2023-04-27T02:38:01.869Z,9.02
2023-04-27T02:40:28.529Z,8.50
2023-04-27T02:42:55.452Z,10.00
2023-04-27T02:45:22.219Z,9.38
2023-04-27T02:47:50.876Z,9.85
2023-04-27T02:50:17.845Z,10.13
2023-04-27T02:52:44.548Z,9.98
2023-04-27T02:55:11.679Z,9.93
2023-04-27T02:57:38.433Z,9.02
2023-04-27T03:00:06.992Z,9.38
2023-04-27T03:02:33.830Z,9.57
2023-04-27T03:05:00.712Z,8.95
2023-04-27T03:07:27.406Z,10.88
2023-04-27T03:09:54.060Z,10.68
2023-04-27T03:12:20.764Z,9.63
2023-04-27T03:14:47.500Z,10.98
2023-04-27T03:17:14.161Z,9.52
2023-04-27T03:19:41.206Z,9.35
2023-04-27T03:22:07.892Z,9.00
2023-04-27T03:24:34.957Z,10.70
2023-04-27T03:27:03.221Z,11.43
2023-04-27T03:29:29.922Z,9.05
2023-04-27T03:31:57.382Z,10.48
2023-04-27T03:34:24.444Z,9.40
2023-04-27T03:36:51.198Z,10.30
2023-04-27T03:39:17.921Z,10.48
2023-04-27T03:41:44.613Z,10.98
2023-04-27T03:44:11.376Z,11.45
2023-04-27T03:46:38.164Z,10.35
2023-04-27T03:49:04.828Z,11.80
2023-04-27T03:51:34.665Z,12.68
2023-04-27T03:56:28.064Z,13.60
2023-04-27T03:58:54.765Z,12.27
2023-04-27T04:01:21.941Z,12.57
2023-04-27T04:03:48.947Z,13.23
2023-04-27T04:06:15.785Z,15.85
2023-04-27T04:08:42.540Z,15.68
2023-04-27T04:11:09.246Z,16.83
2023-04-27T04:13:36.561Z,14.00
2023-04-27T04:16:04.596Z,16.67
2023-04-27T04:18:31.380Z,13.82
2023-04-27T04:20:58.271Z,14.18
2023-04-27T04:23:25.067Z,15.60
2023-04-27T04:25:51.980Z,16.42
2023-04-27T04:28:18.654Z,16.60
2023-04-27T04:30:45.663Z,15.98
2023-04-27T04:33:12.417Z,14.60
2023-04-27T04:35:39.657Z,16.20
2023-04-27T04:38:06.428Z,13.85
2023-04-27T04:40:33.188Z,13.63
2023-04-27T04:42:59.867Z,13.38
2023-04-27T04:45:27.056Z,14.65
2023-04-27T04:47:54.491Z,14.50
2023-04-27T04:50:21.387Z,14.52
2023-04-27T04:52:48.123Z,15.35
2023-04-27T04:55:15.238Z,13.23
2023-04-27T04:57:41.962Z,14.38
2023-04-27T05:00:12.638Z,12.82
2023-04-27T05:02:40.054Z,14.55
2023-04-27T05:05:07.412Z,12.52
2023-04-27T05:07:34.315Z,14.00
2023-04-27T05:10:01.177Z,13.07
2023-04-27T05:12:28.467Z,12.20
2023-04-27T05:14:55.320Z,11.88
2023-04-27T05:17:22.034Z,14.93
2023-04-27T05:19:48.700Z,12.77
2023-04-27T05:22:15.715Z,12.90
2023-04-27T05:24:42.380Z,13.40
2023-04-27T05:27:09.085Z,12.75
2023-04-27T05:29:35.748Z,13.23
2023-04-27T05:32:02.812Z,13.52
2023-04-27T05:34:29.521Z,14.07
2023-04-27T05:36:56.184Z,12.88
2023-04-27T05:39:22.893Z,13.32
2023-04-27T05:41:49.608Z,14.15
2023-04-27T05:44:16.667Z,16.13
2023-04-27T05:46:43.453Z,16.30
2023-04-27T05:49:10.138Z,18.33
2023-04-27T05:51:38.361Z,19.70
2023-04-27T05:54:05.163Z,20.02
2023-04-27T05:56:31.851Z,21.00
2023-04-27T05:59:00.494Z,22.20
2023-04-27T06:01:28.553Z,21.58
2023-04-27T06:03:55.913Z,20.40
2023-04-27T06:06:22.650Z,21.80
2023-04-27T06:08:49.361Z,19.30
2023-04-27T06:11:16.425Z,20.75
2023-04-27T06:13:43.176Z,22.38
2023-04-27T06:16:09.859Z,22.55
2023-04-27T06:18:36.605Z,20.85
2023-04-27T06:21:03.394Z,20.88
2023-04-27T06:23:30.209Z,21.50
2023-04-27T06:25:57.181Z,21.90
2023-04-27T06:28:23.883Z,21.65
2023-04-27T06:30:50.799Z,21.35
2023-04-27T06:33:17.577Z,21.50
2023-04-27T06:35:47.242Z,21.73
2023-04-27T06:38:14.332Z,21.92
2023-04-27T06:40:41.148Z,20.70
2023-04-27T06:43:07.840Z,20.15
2023-04-27T06:45:34.501Z,22.13
2023-04-27T06:48:01.569Z,21.05
2023-04-27T06:50:29.197Z,20.88
2023-04-27T06:52:55.970Z,20.13
2023-04-27T06:55:22.692Z,21.67
2023-04-27T06:57:49.387Z,19.30
2023-04-27T07:00:16.433Z,19.35
2023-04-27T07:02:43.892Z,18.30
2023-04-27T07:05:10.890Z,19.83
2023-04-27T07:07:37.648Z,19.25
2023-04-27T07:10:04.805Z,18.67
2023-04-27T07:12:31.480Z,19.42
2023-04-27T07:14:58.202Z,18.02
2023-04-27T07:17:24.926Z,19.08
2023-04-27T07:19:52.107Z,17.50
2023-04-27T07:22:20.030Z,18.90
2023-04-27T07:24:46.843Z,17.10
2023-04-27T07:27:15.029Z,17.17
2023-04-27T07:29:42.402Z,17.25
2023-04-27T07:32:09.299Z,16.70
2023-04-27T07:34:48.865Z,16.70
2023-04-27T07:37:20.042Z,16.25
2023-04-27T07:39:47.333Z,16.02
2023-04-27T07:42:15.235Z,17.05
2023-04-27T07:44:42.634Z,17.55
2023-04-27T07:47:09.451Z,16.60
2023-04-27T07:49:37.320Z,16.90
2023-04-27T07:52:04.840Z,15.48
2023-04-27T07:54:31.795Z,14.60
2023-04-27T07:56:58.584Z,13.95
2023-04-27T07:59:28.280Z,14.93
2023-04-27T08:02:04.110Z,14.75
2023-04-27T08:04:38.256Z,14.07
2023-04-27T08:07:06.128Z,13.15
2023-04-27T08:09:33.944Z,12.70
2023-04-27T08:12:02.665Z,14.60
2023-04-27T08:14:29.385Z,13.60
2023-04-27T08:16:56.135Z,13.25
2023-04-27T08:19:22.907Z,13.27
2023-04-27T08:25:24.972Z,12.00
2023-04-27T08:27:52.351Z,11.68
2023-04-27T08:30:19.022Z,12.45
2023-04-27T08:32:45.890Z,11.80
2023-04-27T08:35:13.355Z,12.02
2023-04-27T08:37:40.093Z,12.07
2023-04-27T08:40:07.684Z,12.00
2023-04-27T08:42:34.414Z,11.57
2023-04-27T08:45:01.105Z,11.50
2023-04-27T08:47:39.152Z,10.93
2023-04-27T08:50:10.767Z,11.48
2023-04-27T08:52:37.765Z,11.30
2023-04-27T08:55:05.872Z,11.63
2023-04-27T08:57:32.577Z,11.68
2023-04-27T09:00:07.702Z,11.25
2023-04-27T09:02:34.554Z,11.75
2023-04-27T09:05:01.535Z,11.90
2023-04-27T09:07:28.678Z,10.57
2023-04-27T09:10:05.432Z,10.07
2023-04-27T09:12:32.182Z,10.38
2023-04-27T09:15:00.060Z,11.45
2023-04-27T09:17:27.898Z,10.25
2023-04-27T09:20:13.332Z,12.20
2023-04-27T09:22:47.221Z,9.88
2023-04-27T09:25:31.412Z,10.18
2023-04-27T09:27:59.698Z,10.88
2023-04-27T09:30:27.112Z,10.50
2023-04-27T09:33:01.916Z,11.52
2023-04-27T09:35:30.226Z,10.68
2023-04-27T09:37:57.116Z,9.90
2023-04-27T09:40:29.739Z,10.75
2023-04-27T09:42:57.692Z,10.82
2023-04-27T09:45:25.077Z,10.68
2023-04-27T09:47:52.084Z,11.98
2023-04-27T09:50:19.150Z,9.82
2023-04-27T09:52:46.450Z,11.45
2023-04-27T09:55:21.517Z,11.00
2023-04-27T09:57:51.015Z,10.18
2023-04-27T10:00:50.880Z,9.95
2023-04-27T10:03:55.486Z,10.30
2023-04-27T10:06:22.515Z,10.65
2023-04-27T10:08:50.850Z,10.13
2023-04-27T10:11:19.210Z,9.25
2023-04-27T10:13:55.467Z,8.82
2023-04-27T10:16:22.416Z,8.93
2023-04-27T10:18:56.243Z,8.88
2023-04-27T10:21:23.766Z,8.90
2023-04-27T10:23:51.838Z,8.88
2023-04-27T10:26:25.634Z,7.38
2023-04-27T10:28:58.634Z,7.70
2023-04-27T10:31:29.414Z,6.65
2023-04-27T10:34:12.275Z,7.68
2023-04-27T10:36:39.391Z,7.57
2023-04-27T10:39:19.624Z,8.43
2023-04-27T10:41:52.960Z,6.32
2023-04-27T10:44:21.129Z,7.15
2023-04-27T10:46:54.433Z,5.97
2023-04-27T10:49:21.348Z,7.15
2023-04-27T10:51:57.278Z,6.50
2023-04-27T10:54:28.602Z,7.90
2023-04-27T10:57:02.146Z,7.32
2023-04-27T10:59:28.827Z,6.90
2023-04-27T11:01:55.849Z,7.78
2023-04-27T11:04:22.655Z,6.25
2023-04-27T11:06:50.280Z,6.88
2023-04-27T11:09:27.485Z,6.75
2023-04-27T11:11:54.197Z,6.53
2023-04-27T11:14:23.972Z,6.68
2023-04-27T11:16:50.665Z,6.43
2023-04-27T11:19:17.430Z,6.63
2023-04-27T11:21:44.130Z,6.45
2023-04-27T11:24:12.112Z,6.55
2023-04-27T11:26:40.041Z,6.25
2023-04-27T11:29:14.476Z,6.80
2023-04-27T11:31:49.478Z,6.03
2023-04-27T11:34:17.367Z,5.43
2023-04-27T11:36:44.578Z,5.80
2023-04-27T11:39:22.375Z,5.60
2023-04-27T11:41:49.167Z,5.50
2023-04-27T11:44:23.681Z,5.57
2023-04-27T11:46:50.628Z,5.47
2023-04-27T11:49:17.757Z,5.20
2023-04-27T11:51:46.435Z,6.20
2023-04-27T11:54:13.555Z,5.28
2023-04-27T11:56:41.584Z,5.63
2023-04-27T11:59:21.741Z,6.38
2023-04-27T12:01:48.638Z,4.93
2023-04-27T12:04:16.955Z,5.43
2023-04-27T12:06:44.047Z,5.45
2023-04-27T12:09:11.341Z,5.57
2023-04-27T12:11:38.365Z,5.28
2023-04-27T12:14:05.184Z,5.60
2023-04-27T12:16:32.093Z,5.40
2023-04-27T12:18:58.936Z,5.25
2023-04-27T12:21:25.626Z,5.70
2023-04-27T12:23:52.739Z,6.43
2023-04-27T12:26:20.543Z,5.32
2023-04-27T12:28:47.296Z,5.15
2023-04-27T12:31:16.337Z,5.78
2023-04-27T12:33:43.791Z,5.55
2023-04-27T12:36:10.463Z,4.95
2023-04-27T12:38:37.462Z,5.88
2023-04-27T12:41:04.154Z,5.07
2023-04-27T12:43:31.077Z,5.47
2023-04-27T12:45:57.819Z,5.63
2023-04-27T12:48:24.600Z,6.38
2023-04-27T12:50:51.287Z,5.38
2023-04-27T12:53:17.956Z,5.38
2023-04-27T12:55:44.823Z,7.63
2023-04-27T12:58:11.611Z,5.57
2023-04-27T13:00:39.037Z,5.70
2023-04-27T13:03:06.881Z,5.38
2023-04-27T13:05:33.820Z,6.15
2023-04-27T13:08:00.635Z,5.63
2023-04-27T13:10:28.752Z,5.53
2023-04-27T13:12:55.568Z,5.72
2023-04-27T13:15:22.768Z,5.30
2023-04-27T13:17:49.628Z,5.03
2023-04-27T13:20:16.670Z,6.53
2023-04-27T13:22:43.799Z,5.32
2023-04-27T13:25:10.761Z,7.13
2023-04-27T13:27:37.562Z,6.05
2023-04-27T13:30:05.362Z,4.85
2023-04-27T13:32:32.336Z,6.03
2023-04-27T13:34:59.613Z,5.90
2023-04-27T13:37:27.299Z,5.20
2023-04-27T13:39:54.155Z,5.75
2023-04-27T13:42:21.669Z,5.85
2023-04-27T13:44:48.463Z,5.97
2023-04-27T13:47:15.504Z,5.95
2023-04-27T13:49:42.426Z,6.80
2023-04-27T13:52:09.809Z,7.13
2023-04-27T13:54:37.333Z,6.93
2023-04-27T13:57:04.303Z,6.63
2023-04-27T13:59:31.251Z,7.00
2023-04-27T14:01:57.922Z,7.03
2023-04-27T14:04:24.805Z,7.20
2023-04-27T14:06:51.615Z,7.00
2023-04-27T14:09:18.714Z,8.00
2023-04-27T14:11:55.646Z,7.18
2023-04-27T14:14:24.003Z,7.63
2023-04-27T14:16:51.311Z,7.55
2023-04-27T14:19:20.301Z,7.32
2023-04-27T14:21:48.101Z,7.53
2023-04-27T14:24:14.866Z,7.70
2023-04-27T14:26:47.427Z,7.15
2023-04-27T14:29:14.407Z,7.07
2023-04-27T14:31:41.522Z,7.45
2023-04-27T14:34:08.423Z,6.95
2023-04-27T14:36:35.136Z,8.13
2023-04-27T14:39:01.911Z,8.93
2023-04-27T14:41:29.450Z,8.38
2023-04-27T14:43:56.130Z,8.27
2023-04-27T14:46:23.043Z,7.60
2023-04-27T14:48:49.944Z,8.52
2023-04-27T14:51:19.692Z,8.82
2023-04-27T14:53:46.860Z,8.57
2023-04-27T14:56:13.665Z,8.20
2023-04-27T14:58:41.112Z,9.90
2023-04-27T15:01:08.079Z,8.32
2023-04-27T15:03:35.315Z,8.73
2023-04-27T15:06:02.704Z,7.85
2023-04-27T15:08:31.274Z,8.82
2023-04-27T15:11:00.153Z,9.23
2023-04-27T15:13:27.571Z,8.93
2023-04-27T15:15:58.566Z,8.93
2023-04-27T15:18:25.562Z,8.50
2023-04-27T15:20:55.659Z,9.30
2023-04-27T15:23:23.093Z,9.38
2023-04-27T15:25:50.461Z,8.85
2023-04-27T15:28:17.682Z,8.82
2023-04-27T15:30:44.695Z,9.73
2023-04-27T15:33:13.269Z,8.55
2023-04-27T15:35:40.572Z,9.80
2023-04-27T15:38:08.141Z,8.93
2023-04-27T15:40:34.957Z,9.38
2023-04-27T15:43:01.890Z,9.07
2023-04-27T15:45:29.312Z,9.88
2023-04-27T15:47:56.620Z,10.00
2023-04-27T15:50:23.649Z,10.07
2023-04-27T15:52:51.011Z,10.02
2023-04-27T15:55:21.018Z,10.20
2023-04-27T15:57:47.800Z,10.88
2023-04-27T16:00:16.839Z,11.55
2023-04-27T16:02:45.715Z,9.93
2023-04-27T16:05:12.469Z,10.57
2023-04-27T16:07:39.860Z,11.10
2023-04-27T16:10:07.497Z,11.32
2023-04-27T16:12:34.454Z,11.85
2023-04-27T16:15:01.173Z,11.30
2023-04-27T16:17:29.433Z,10.80
2023-04-27T16:19:56.369Z,12.02
2023-04-27T16:22:23.506Z,11.23
2023-04-27T16:24:50.464Z,11.45
2023-04-27T16:27:17.526Z,11.00
2023-04-27T16:29:44.930Z,11.85
2023-04-27T16:32:11.867Z,11.63
2023-04-27T16:34:39.365Z,11.48
2023-04-27T16:37:06.541Z,13.43
2023-04-27T16:39:33.266Z,12.18
2023-04-27T16:42:00.073Z,13.15
2023-04-27T16:44:27.313Z,15.50
2023-04-27T16:46:54.012Z,13.35
2023-04-27T16:49:20.837Z,13.45
2023-04-27T16:51:47.604Z,14.05
2023-04-27T16:54:17.558Z,14.90
2023-04-27T16:56:45.787Z,14.13
2023-04-27T16:59:12.932Z,15.18
2023-04-27T17:01:40.474Z,13.57
2023-04-27T17:04:07.510Z,14.45
2023-04-27T17:06:34.860Z,14.45
2023-04-27T17:09:01.983Z,15.02
2023-04-27T17:11:28.855Z,15.18
2023-04-27T17:13:55.811Z,16.30
2023-04-27T17:16:23.482Z,14.73
2023-04-27T17:18:50.544Z,16.23
2023-04-27T17:21:17.454Z,14.93
2023-04-27T17:23:47.440Z,14.55
2023-04-27T17:26:16.111Z,16.70
2023-04-27T17:28:42.917Z,17.42
2023-04-27T17:31:10.096Z,16.98
2023-04-27T17:33:38.070Z,16.25
2023-04-27T17:36:06.809Z,15.73
2023-04-27T17:38:33.556Z,16.47
2023-04-27T17:41:00.349Z,16.60
2023-04-27T17:43:27.095Z,17.42
2023-04-27T17:45:53.855Z,18.38
2023-04-27T17:48:20.695Z,17.58
2023-04-27T17:50:47.482Z,18.67
2023-04-27T17:53:15.328Z,18.85
2023-04-27T17:55:45.430Z,18.30
2023-04-27T17:58:12.235Z,17.38
2023-04-27T18:00:39.199Z,18.58
2023-04-27T18:03:06.376Z,17.52
2023-04-27T18:05:33.251Z,17.65
2023-04-27T18:08:00.066Z,19.13
2023-04-27T18:10:26.803Z,17.70
2023-04-27T18:12:53.548Z,19.85
2023-04-27T18:15:20.502Z,17.80
2023-04-27T18:17:47.344Z,18.85
2023-04-27T18:20:15.555Z,19.08
2023-04-27T18:22:42.330Z,18.83
2023-04-27T18:25:09.957Z,19.42
2023-04-27T18:27:39.764Z,18.42
2023-04-27T18:30:08.337Z,20.83
2023-04-27T18:32:35.420Z,18.93
2023-04-27T18:35:02.888Z,20.30
2023-04-27T18:37:29.755Z,20.25
2023-04-27T18:39:56.543Z,18.15
2023-04-27T18:42:23.763Z,20.30
2023-04-27T18:44:54.625Z,17.65
2023-04-27T18:47:21.994Z,17.08
2023-04-27T18:49:48.848Z,16.23
2023-04-27T18:52:15.655Z,17.20
2023-04-27T18:54:42.450Z,19.27
2023-04-27T18:57:09.207Z,18.27
2023-04-27T18:59:38.332Z,17.50
2023-04-27T19:02:06.546Z,18.45
2023-04-27T19:04:33.924Z,18.38
2023-04-27T19:07:01.453Z,18.98
2023-04-27T19:09:28.181Z,16.92
2023-04-27T19:12:02.939Z,17.85
2023-04-27T19:14:31.543Z,17.58
2023-04-27T19:16:58.339Z,19.17
2023-04-27T19:19:26.635Z,17.27
2023-04-27T19:21:53.974Z,17.15
2023-04-27T19:24:21.006Z,18.45
2023-04-27T19:26:48.336Z,19.50
2023-04-27T19:29:15.693Z,18.60
2023-04-27T19:31:42.831Z,18.30
2023-04-27T19:34:09.658Z,18.27
2023-04-27T19:36:36.960Z,18.00
2023-04-27T19:39:03.865Z,19.63
2023-04-27T19:41:31.156Z,19.52
2023-04-27T19:43:57.871Z,20.75
2023-04-27T19:46:24.885Z,21.25
2023-04-27T19:48:53.258Z,21.90
2023-04-27T19:51:19.965Z,23.98
2023-04-27T19:53:46.745Z,22.60
2023-04-27T19:56:13.447Z,22.23
2023-04-27T19:58:40.372Z,22.42
2023-04-27T20:01:07.181Z,24.48
2023-04-27T20:03:35.711Z,24.95
2023-04-27T20:06:02.925Z,21.52
2023-04-27T20:08:30.525Z,22.83
2023-04-27T20:10:57.326Z,22.98
2023-04-27T20:13:24.749Z,21.58
2023-04-27T20:15:52.307Z,19.98
2023-04-27T20:18:19.340Z,19.90
2023-04-27T20:20:46.231Z,20.00
2023-04-27T20:23:13.036Z,20.05
2023-04-27T20:25:40.274Z,20.33
2023-04-27T20:28:07.073Z,20.73
2023-04-27T20:30:33.839Z,20.55
2023-04-27T20:33:01.575Z,20.52
2023-04-27T20:35:28.414Z,20.73
2023-04-27T20:37:57.839Z,18.77
2023-04-27T20:40:24.517Z,17.52
2023-04-27T20:42:51.799Z,17.33
2023-04-27T20:45:19.584Z,17.02
2023-04-27T20:47:46.521Z,14.10
2023-04-27T20:50:13.608Z,15.73
2023-04-27T20:52:40.406Z,14.50
2023-04-27T20:55:07.662Z,14.55
2023-04-27T20:57:34.510Z,13.98
2023-04-27T21:00:01.260Z,13.88
2023-04-27T21:02:28.141Z,12.27
2023-04-27T21:04:54.912Z,13.13
2023-04-27T21:07:21.712Z,12.35
2023-04-27T21:09:48.407Z,11.95
2023-04-27T21:12:17.879Z,11.05
2023-04-27T21:14:45.306Z,10.68
2023-04-27T21:17:15.116Z,11.60
2023-04-27T21:19:42.156Z,10.73
2023-04-27T21:22:09.148Z,9.68
2023-04-27T21:24:35.968Z,9.68
2023-04-27T21:27:03.340Z,9.50
2023-04-27T21:29:30.135Z,9.20
2023-04-27T21:31:56.926Z,9.15
2023-04-27T21:34:28.373Z,8.65
2023-04-27T21:36:55.575Z,9.07
2023-04-27T21:39:22.321Z,7.78
2023-04-27T21:41:49.059Z,8.15
2023-04-27T21:44:16.158Z,7.13
2023-04-27T21:46:43.174Z,7.43
2023-04-27T21:49:09.963Z,6.60
2023-04-27T21:51:36.940Z,7.57
2023-04-27T21:54:03.886Z,6.20
2023-04-27T21:56:30.654Z,6.47
2023-04-27T21:58:57.431Z,7.18
2023-04-27T22:01:27.196Z,6.22
2023-04-27T22:03:54.488Z,5.47
2023-04-27T22:06:21.870Z,4.90
2023-04-27T22:08:48.674Z,5.18
2023-04-27T22:11:15.630Z,5.30
2023-04-27T22:13:42.313Z,5.15
2023-04-27T22:16:09.519Z,5.25
2023-04-27T22:18:37.528Z,5.57
2023-04-27T22:21:04.308Z,5.55
2023-04-27T22:23:31.562Z,4.68
2023-04-27T22:25:58.367Z,5.95
2023-04-27T22:28:25.545Z,4.93
2023-04-27T22:30:52.221Z,5.50
2023-04-27T22:33:19.095Z,5.20
2023-04-27T22:35:46.037Z,5.50
2023-04-27T22:38:12.848Z,5.18
2023-04-27T22:40:39.603Z,4.60
2023-04-27T22:43:06.600Z,4.78
2023-04-27T22:45:33.497Z,4.50
2023-04-27T22:48:00.341Z,4.38
2023-04-27T22:50:27.116Z,3.88
2023-04-27T22:52:53.899Z,4.55
2023-04-27T22:55:21.257Z,4.68
2023-04-27T22:57:49.911Z,4.30
2023-04-27T23:00:17.389Z,4.60
2023-04-27T23:02:44.236Z,4.70
2023-04-27T23:05:12.539Z,4.32
2023-04-27T23:07:41.345Z,4.60
2023-04-27T23:10:08.504Z,4.20
2023-04-27T23:12:35.361Z,5.18
2023-04-27T23:15:02.121Z,4.72
2023-04-27T23:17:31.764Z,4.40
2023-04-27T23:20:01.874Z,4.65
2023-04-27T23:22:28.655Z,4.30
2023-04-27T23:24:56.310Z,4.15
2023-04-27T23:27:24.761Z,4.20
2023-04-27T23:29:51.861Z,3.70
2023-04-27T23:32:18.823Z,3.60
2023-04-27T23:34:45.582Z,4.00
2023-04-27T23:37:12.656Z,4.03
2023-04-27T23:39:39.401Z,3.67
2023-04-27T23:42:06.336Z,3.53
2023-04-27T23:44:33.118Z,3.80
2023-04-27T23:46:59.830Z,3.92
2023-04-27T23:49:26.803Z,4.93
2023-04-27T23:51:53.628Z,4.03
2023-04-27T23:54:20.384Z,4.50
2023-04-27T23:56:47.279Z,4.50
2023-04-27T23:59:15.098Z,4.43
